createdAt,value
2019-04-25T04:02:01.228Z,75.44
2019-04-25T04:03:00.639Z,75.44
2019-04-25T04:04:00.813Z,75.68
2019-04-25T04:05:00.981Z,75.93
2019-04-25T04:06:01.159Z,75.44
2019-04-25T04:07:01.317Z,74.95
2019-04-25T04:08:01.490Z,74.71
2019-04-25T04:09:01.652Z,75.20
2019-04-25T04:10:03.549Z,75.68
2019-04-25T04:11:01.996Z,76.42
2019-04-25T04:12:04.302Z,75.20
2019-04-25T04:13:04.203Z,75.44
2019-04-25T04:14:03.977Z,74.71
2019-04-25T04:15:04.733Z,75.68
2019-04-25T04:16:03.406Z,75.20
2019-04-25T04:17:05.049Z,74.46
2019-04-25T04:18:05.110Z,74.71
2019-04-25T04:19:04.923Z,75.20
2019-04-25T04:20:03.930Z,75.44
2019-04-25T04:21:03.676Z,73.73
2019-04-25T04:22:03.829Z,74.46
2019-04-25T04:23:04.002Z,74.22
2019-04-25T04:24:04.166Z,74.71
2019-04-25T04:25:04.313Z,75.44
2019-04-25T04:26:05.497Z,75.20
2019-04-25T04:27:06.603Z,74.71
2019-04-25T04:28:06.139Z,74.95
2019-04-25T04:29:05.926Z,74.71
2019-04-25T04:30:06.393Z,75.20
2019-04-25T04:31:06.535Z,76.90
2019-04-25T04:32:06.835Z,75.44
2019-04-25T04:33:06.866Z,75.93
2019-04-25T04:34:06.337Z,75.68
2019-04-25T04:35:06.541Z,75.68
2019-04-25T04:36:07.336Z,75.44
2019-04-25T04:37:07.492Z,74.95
2019-04-25T04:38:08.048Z,75.20
2019-04-25T04:39:07.783Z,75.68
2019-04-25T04:40:07.925Z,76.42
2019-04-25T04:41:07.975Z,75.20
2019-04-25T04:42:07.565Z,78.86
2019-04-25T04:43:08.009Z,75.93
2019-04-25T04:44:08.231Z,76.17
2019-04-25T04:45:08.444Z,76.42
2019-04-25T04:46:08.643Z,75.20
2019-04-25T04:47:08.548Z,76.17
2019-04-25T04:48:08.751Z,77.39
2019-04-25T04:49:08.781Z,74.95
2019-04-25T04:50:09.018Z,75.93
2019-04-25T04:51:09.036Z,75.68
2019-04-25T04:52:09.328Z,75.68
2019-04-25T04:53:09.263Z,75.68
2019-04-25T04:54:09.504Z,75.44
2019-04-25T04:55:11.265Z,74.95
2019-04-25T04:56:09.683Z,75.93
2019-04-25T04:57:23.471Z,75.20
2019-04-25T04:58:11.039Z,77.39
2019-04-25T04:59:10.861Z,76.90
2019-04-25T05:00:11.096Z,75.68
2019-04-25T05:01:11.039Z,76.90
2019-04-25T05:02:11.443Z,76.17
2019-04-25T05:03:11.184Z,77.15
2019-04-25T05:04:10.883Z,75.68
2019-04-25T05:05:12.040Z,75.68
2019-04-25T05:06:11.206Z,77.15
2019-04-25T05:07:11.375Z,75.93
2019-04-25T05:08:12.612Z,75.93
2019-04-25T05:09:12.451Z,76.42
2019-04-25T05:10:14.379Z,77.15
2019-04-25T05:11:12.951Z,75.68
2019-04-25T05:12:13.430Z,75.68
2019-04-25T05:13:14.593Z,76.42
2019-04-25T05:14:14.887Z,75.44
2019-04-25T05:15:16.209Z,75.68
2019-04-25T05:16:14.894Z,74.95
2019-04-25T05:17:15.158Z,75.44
2019-04-25T05:18:15.621Z,75.93
2019-04-25T05:19:15.460Z,74.95
2019-04-25T05:20:16.028Z,75.20
2019-04-25T05:21:15.719Z,75.68
2019-04-25T05:22:14.826Z,75.44
2019-04-25T05:23:15.092Z,76.42
2019-04-25T05:24:16.011Z,74.95
2019-04-25T05:25:16.225Z,75.44
2019-04-25T05:26:15.997Z,75.44
2019-04-25T05:27:16.665Z,75.68
2019-04-25T05:28:16.184Z,74.95
2019-04-25T05:29:19.759Z,75.44
2019-04-25T05:30:16.576Z,75.44
2019-04-25T05:31:16.812Z,75.68
2019-04-25T05:32:16.989Z,75.68
2019-04-25T05:33:18.523Z,75.20
2019-04-25T05:34:17.141Z,75.93
2019-04-25T05:35:16.340Z,77.39
2019-04-25T05:36:17.280Z,75.93
2019-04-25T05:37:16.395Z,75.68
2019-04-25T05:38:16.586Z,75.44
2019-04-25T05:39:18.057Z,75.68
2019-04-25T05:40:17.181Z,76.17
2019-04-25T05:41:17.090Z,75.68
2019-04-25T05:42:17.271Z,77.15
2019-04-25T05:43:18.351Z,76.42
2019-04-25T05:44:17.552Z,75.68
2019-04-25T05:45:18.954Z,75.93
2019-04-25T05:46:17.873Z,76.90
2019-04-25T05:47:20.461Z,75.68
2019-04-25T05:48:18.968Z,75.68
2019-04-25T05:49:19.082Z,76.90
2019-04-25T05:50:18.543Z,76.17
2019-04-25T05:51:19.473Z,75.44
2019-04-25T05:52:19.830Z,76.66
2019-04-25T05:53:19.768Z,75.93
2019-04-25T05:54:19.193Z,76.66
2019-04-25T05:55:20.232Z,75.93
2019-04-25T05:56:20.137Z,75.68
2019-04-25T05:57:19.671Z,75.93
2019-04-25T05:58:20.447Z,76.42
2019-04-25T05:59:20.002Z,75.93
2019-04-25T06:00:20.705Z,76.17
2019-04-25T06:01:20.761Z,75.93
2019-04-25T06:02:21.501Z,76.42
2019-04-25T06:03:20.846Z,76.42
2019-04-25T06:04:21.061Z,80.32
2019-04-25T06:05:21.168Z,76.66
2019-04-25T06:06:21.243Z,75.68
2019-04-25T06:07:21.521Z,76.17
2019-04-25T06:08:21.593Z,75.93
2019-04-25T06:09:21.869Z,76.17
2019-04-25T06:10:21.975Z,76.42
2019-04-25T06:11:23.578Z,77.15
2019-04-25T06:12:23.704Z,76.42
2019-04-25T06:13:23.847Z,75.93
2019-04-25T06:14:24.033Z,77.39
2019-04-25T06:15:24.034Z,76.42
2019-04-25T06:16:25.654Z,76.42
2019-04-25T06:17:24.576Z,76.42
2019-04-25T06:18:24.785Z,76.66
2019-04-25T06:19:25.165Z,76.42
2019-04-25T06:20:24.603Z,76.66
2019-04-25T06:21:24.586Z,76.42
2019-04-25T06:22:24.670Z,76.66
2019-04-25T06:23:24.587Z,75.68
2019-04-25T06:24:25.814Z,76.17
2019-04-25T06:25:29.767Z,77.15
2019-04-25T06:26:34.726Z,75.93
2019-04-25T06:27:25.875Z,76.17
2019-04-25T06:28:24.897Z,76.66
2019-04-25T06:29:25.003Z,75.93
2019-04-25T06:30:25.973Z,76.17
2019-04-25T06:31:26.846Z,76.17
2019-04-25T06:32:26.904Z,76.90
2019-04-25T06:33:25.927Z,76.66
2019-04-25T06:34:28.373Z,76.17
2019-04-25T06:35:26.637Z,76.66
2019-04-25T06:36:27.056Z,76.90
2019-04-25T06:37:27.014Z,78.37
2019-04-25T06:38:27.485Z,78.13
2019-04-25T06:39:26.694Z,77.39
2019-04-25T06:40:29.426Z,76.90
2019-04-25T06:41:27.131Z,76.90
2019-04-25T06:42:27.212Z,77.15
2019-04-25T06:43:27.989Z,77.15
2019-04-25T06:44:28.478Z,76.17
2019-04-25T06:45:28.050Z,76.90
2019-04-25T06:46:28.699Z,76.17
2019-04-25T06:47:28.038Z,77.64
2019-04-25T06:48:28.979Z,77.15
2019-04-25T06:49:29.296Z,76.66
2019-04-25T06:50:29.037Z,77.15
2019-04-25T06:51:28.706Z,76.66
2019-04-25T06:52:31.003Z,76.42
2019-04-25T06:53:29.038Z,76.66
2019-04-25T06:54:29.565Z,77.15
2019-04-25T06:55:30.165Z,78.61
2019-04-25T06:56:29.522Z,78.13
2019-04-25T06:57:30.455Z,76.66
2019-04-25T06:58:30.148Z,77.15
2019-04-25T06:59:30.147Z,77.15
2019-04-25T07:00:34.167Z,76.90
2019-04-25T07:01:30.480Z,77.15
2019-04-25T07:02:30.969Z,76.90
2019-04-25T07:03:31.500Z,76.66
2019-04-25T07:04:33.648Z,76.66
2019-04-25T07:05:35.764Z,76.42
2019-04-25T07:06:31.402Z,76.42
2019-04-25T07:07:31.452Z,77.15
2019-04-25T07:08:31.592Z,77.15
2019-04-25T07:09:34.302Z,76.90
2019-04-25T07:10:33.560Z,78.13
2019-04-25T07:11:32.964Z,76.90
2019-04-25T07:12:34.170Z,76.66
2019-04-25T07:13:35.215Z,77.39
2019-04-25T07:14:33.848Z,77.64
2019-04-25T07:15:34.123Z,76.90
2019-04-25T07:16:33.792Z,76.66
2019-04-25T07:17:34.701Z,76.66
2019-04-25T07:18:36.308Z,77.15
2019-04-25T07:19:34.354Z,77.15
2019-04-25T07:20:34.550Z,77.39
2019-04-25T07:21:34.678Z,76.66
2019-04-25T07:22:35.313Z,76.90
2019-04-25T07:23:34.597Z,76.17
2019-04-25T07:24:35.305Z,75.93
2019-04-25T07:25:35.377Z,76.17
2019-04-25T07:26:39.527Z,77.15
2019-04-25T07:27:35.563Z,76.17
2019-04-25T07:28:36.101Z,76.66
2019-04-25T07:29:35.720Z,76.42
2019-04-25T07:30:48.671Z,76.17
2019-04-25T07:31:35.707Z,76.17
2019-04-25T07:32:35.783Z,76.42
2019-04-25T07:33:35.914Z,76.66
2019-04-25T07:34:36.665Z,76.66
2019-04-25T07:35:36.011Z,77.15
2019-04-25T07:36:36.293Z,75.93
2019-04-25T07:37:37.868Z,76.66
2019-04-25T07:38:36.511Z,76.17
2019-04-25T07:39:36.671Z,75.93
2019-04-25T07:40:36.842Z,76.17
2019-04-25T07:41:38.432Z,75.93
2019-04-25T07:42:37.182Z,76.17
2019-04-25T07:43:37.341Z,76.66
2019-04-25T07:44:49.292Z,76.17
2019-04-25T07:45:38.296Z,75.20
2019-04-25T07:46:39.925Z,76.17
2019-04-25T07:47:38.042Z,75.93
2019-04-25T07:48:38.235Z,75.68
2019-04-25T07:49:38.389Z,75.68
2019-04-25T07:50:38.534Z,74.95
2019-04-25T07:51:38.712Z,80.32
2019-04-25T07:52:38.853Z,76.17
2019-04-25T07:53:39.009Z,76.42
2019-04-25T07:54:39.187Z,75.93
2019-04-25T07:55:39.342Z,75.68
2019-04-25T07:56:39.528Z,75.44
2019-04-25T07:57:39.690Z,75.44
2019-04-25T07:58:49.251Z,75.44
2019-04-25T07:59:40.036Z,76.66
2019-04-25T08:00:40.188Z,77.39
2019-04-25T08:01:40.344Z,76.66
2019-04-25T08:02:40.530Z,75.20
2019-04-25T08:03:40.671Z,74.46
2019-04-25T08:04:40.859Z,74.46
2019-04-25T08:05:41.048Z,74.95
2019-04-25T08:06:41.197Z,74.95
2019-04-25T08:07:41.359Z,74.71
2019-04-25T08:08:41.531Z,75.44
2019-04-25T08:09:41.695Z,74.95
2019-04-25T08:10:43.404Z,76.17
2019-04-25T08:11:43.390Z,77.15
2019-04-25T08:12:43.983Z,75.93
2019-04-25T08:13:43.657Z,75.68
2019-04-25T08:14:43.765Z,77.64
2019-04-25T08:15:43.689Z,76.17
2019-04-25T08:16:44.209Z,76.66
2019-04-25T08:17:44.139Z,76.42
2019-04-25T08:18:43.427Z,76.66
2019-04-25T08:19:44.269Z,76.42
2019-04-25T08:20:43.571Z,76.42
2019-04-25T08:21:45.079Z,75.93
2019-04-25T08:22:55.445Z,76.42
2019-04-25T08:23:44.029Z,76.17
2019-04-25T08:24:44.169Z,75.93
2019-04-25T08:25:44.343Z,76.42
2019-04-25T08:26:44.519Z,76.66
2019-04-25T08:27:45.079Z,77.64
2019-04-25T08:28:54.449Z,75.20
2019-04-25T08:29:45.604Z,73.97
2019-04-25T08:30:45.180Z,73.49
2019-04-25T08:31:45.430Z,73.24
2019-04-25T08:32:45.559Z,73.97
2019-04-25T08:33:46.640Z,73.49
2019-04-25T08:34:45.883Z,73.73
2019-04-25T08:36:03.372Z,73.73
2019-04-25T08:36:46.209Z,70.80
2019-04-25T08:37:46.380Z,70.07
2019-04-25T08:38:46.552Z,67.87
2019-04-25T08:39:46.704Z,69.82
2019-04-25T08:40:46.877Z,70.80
2019-04-25T08:41:47.051Z,70.31
2019-04-25T08:42:47.237Z,68.12
2019-04-25T08:43:47.362Z,70.07
2019-04-25T08:44:47.534Z,69.09
2019-04-25T08:45:47.723Z,69.58
2019-04-25T08:46:48.784Z,71.29
2019-04-25T08:47:48.032Z,71.29
2019-04-25T08:48:48.202Z,70.56
2019-04-25T08:49:49.542Z,69.34
2019-04-25T08:50:48.545Z,67.63
2019-04-25T08:51:48.702Z,67.63
2019-04-25T08:52:48.907Z,71.04
2019-04-25T08:53:49.073Z,69.82
2019-04-25T08:54:49.215Z,71.78
2019-04-25T08:55:49.392Z,69.34
2019-04-25T08:56:49.564Z,69.58
2019-04-25T08:57:49.743Z,70.07
2019-04-25T08:59:03.299Z,70.31
2019-04-25T08:59:52.681Z,73.49
2019-04-25T09:00:59.269Z,72.51
2019-04-25T09:01:50.391Z,74.71
2019-04-25T09:02:50.573Z,73.49
2019-04-25T09:03:50.735Z,72.75
2019-04-25T09:04:50.897Z,75.20
2019-04-25T09:05:51.142Z,73.00
2019-04-25T09:06:51.259Z,72.75
2019-04-25T09:07:51.429Z,72.75
2019-04-25T09:08:51.595Z,74.95
2019-04-25T09:09:53.222Z,73.24
2019-04-25T09:10:53.472Z,73.49
2019-04-25T09:11:52.102Z,73.24
2019-04-25T09:12:53.735Z,73.49
2019-04-25T09:13:53.745Z,73.73
2019-04-25T09:14:54.143Z,73.73
2019-04-25T09:15:54.052Z,75.20
2019-04-25T09:16:53.374Z,72.02
2019-04-25T09:17:54.760Z,70.07
2019-04-25T09:18:53.969Z,68.36
2019-04-25T09:19:54.180Z,66.89
2019-04-25T09:20:54.003Z,66.89
2019-04-25T09:21:53.779Z,66.89
2019-04-25T09:22:54.359Z,68.85
2019-04-25T09:23:54.140Z,70.31
2019-04-25T09:24:54.278Z,69.34
2019-04-25T09:25:54.511Z,68.85
2019-04-25T09:26:54.612Z,67.63
2019-04-25T09:27:54.775Z,64.94
2019-04-25T09:28:54.973Z,66.65
2019-04-25T09:29:55.123Z,68.12
2019-04-25T09:30:55.281Z,65.19
2019-04-25T09:31:55.477Z,65.43
2019-04-25T09:32:55.641Z,71.29
2019-04-25T09:33:55.807Z,66.16
2019-04-25T09:34:55.983Z,69.34
2019-04-25T09:35:56.142Z,71.04
2019-04-25T09:36:56.310Z,68.85
2019-04-25T09:37:56.483Z,65.92
2019-04-25T09:38:56.628Z,66.89
2019-04-25T09:39:56.808Z,65.67
2019-04-25T09:40:56.981Z,67.14
2019-04-25T09:41:57.142Z,71.53
2019-04-25T09:42:57.330Z,67.87
2019-04-25T09:43:57.497Z,68.85
2019-04-25T09:44:57.666Z,67.63
2019-04-25T09:45:57.839Z,67.38
2019-04-25T09:46:58.019Z,74.22
2019-04-25T09:47:58.166Z,71.29
2019-04-25T09:48:58.326Z,68.36
2019-04-25T09:49:58.519Z,65.92
2019-04-25T09:50:58.686Z,67.87
2019-04-25T09:51:58.872Z,69.09
2019-04-25T09:52:59.026Z,67.63
2019-04-25T09:53:59.171Z,66.65
2019-04-25T09:54:59.353Z,66.41
2019-04-25T09:55:59.513Z,66.65
2019-04-25T09:56:59.689Z,65.67
2019-04-25T09:57:59.857Z,67.38
2019-04-25T09:59:00.036Z,67.63
2019-04-25T10:00:00.199Z,66.41
2019-04-25T10:01:00.378Z,67.14
2019-04-25T10:04:34.511Z,72.02
2019-04-25T10:05:33.921Z,66.41
2019-04-25T10:06:33.393Z,71.29
2019-04-25T10:07:33.425Z,65.92
2019-04-25T10:08:34.272Z,69.09
2019-04-25T10:09:33.819Z,66.16
2019-04-25T10:10:33.954Z,72.27
2019-04-25T10:11:34.125Z,71.29
2019-04-25T10:12:34.302Z,65.67
2019-04-25T10:13:34.480Z,68.12
2019-04-25T10:14:34.659Z,71.04
2019-04-25T10:15:34.833Z,68.12
2019-04-25T10:16:35.072Z,69.58
2019-04-25T10:17:35.186Z,69.34
2019-04-25T10:18:35.365Z,66.65
2019-04-25T10:19:35.533Z,67.63
2019-04-25T10:20:35.758Z,67.38
2019-04-25T10:21:35.894Z,64.94
2019-04-25T10:22:36.040Z,65.19
2019-04-25T10:23:36.242Z,67.63
2019-04-25T10:24:37.400Z,65.67
2019-04-25T10:25:37.997Z,66.16
2019-04-25T10:26:37.610Z,65.67
2019-04-25T10:27:36.921Z,67.87
2019-04-25T10:28:37.094Z,68.12
2019-04-25T10:29:44.851Z,65.67
2019-04-25T10:30:37.447Z,65.67
2019-04-25T10:31:37.629Z,67.63
2019-04-25T10:32:37.807Z,66.65
2019-04-25T10:33:38.855Z,68.85
2019-04-25T10:34:38.155Z,71.53
2019-04-25T10:35:47.970Z,69.82
2019-04-25T10:36:39.873Z,65.67
2019-04-25T10:37:38.894Z,68.12
2019-04-25T10:38:40.162Z,64.94
2019-04-25T10:39:40.072Z,66.65
2019-04-25T10:40:39.368Z,66.65
2019-04-25T10:41:40.184Z,64.94
2019-04-25T10:42:40.651Z,64.70
2019-04-25T10:43:40.474Z,65.67
2019-04-25T10:44:40.200Z,65.19
2019-04-25T10:45:40.681Z,65.92
2019-04-25T10:46:40.282Z,66.16
2019-04-25T10:47:40.469Z,68.85
2019-04-25T10:48:41.802Z,65.92
2019-04-25T10:49:40.834Z,74.71
2019-04-25T10:50:41.743Z,65.67
2019-04-25T10:51:42.173Z,66.89
2019-04-25T10:52:41.549Z,66.89
2019-04-25T10:53:41.859Z,67.63
2019-04-25T10:54:41.744Z,65.67
2019-04-25T10:55:42.842Z,65.43
2019-04-25T10:56:42.095Z,64.21
2019-04-25T10:57:43.142Z,67.63
2019-04-25T10:58:43.983Z,66.16
2019-04-25T10:59:54.555Z,67.63
2019-04-25T11:00:44.855Z,67.63
2019-04-25T11:01:44.693Z,72.75
2019-04-25T11:02:43.790Z,74.46
2019-04-25T11:03:44.528Z,69.34
2019-04-25T11:04:44.573Z,67.63
2019-04-25T11:05:43.744Z,65.19
2019-04-25T11:06:45.346Z,64.21
2019-04-25T11:07:44.501Z,66.41
2019-04-25T11:08:44.932Z,65.92
2019-04-25T11:09:45.563Z,65.67
2019-04-25T11:10:47.505Z,64.70
2019-04-25T11:11:45.794Z,65.92
2019-04-25T11:12:45.431Z,66.65
2019-04-25T11:13:45.318Z,67.38
2019-04-25T11:14:46.370Z,69.09
2019-04-25T11:15:45.545Z,67.63
2019-04-25T11:16:46.610Z,67.63
2019-04-25T11:17:46.728Z,65.92
2019-04-25T11:18:46.403Z,65.67
2019-04-25T11:19:46.817Z,73.49
2019-04-25T11:20:46.451Z,70.31
2019-04-25T11:21:46.712Z,67.38
2019-04-25T11:22:47.269Z,74.46
2019-04-25T11:23:47.691Z,66.65
2019-04-25T11:24:47.189Z,66.65
2019-04-25T11:25:47.362Z,64.94
2019-04-25T11:26:50.142Z,66.16
2019-04-25T11:27:49.679Z,64.21
2019-04-25T11:28:48.677Z,66.65
2019-04-25T11:29:48.589Z,71.29
2019-04-25T11:30:48.259Z,68.60
2019-04-25T11:31:48.965Z,67.63
2019-04-25T11:32:48.615Z,66.65
2019-04-25T11:33:48.799Z,67.63
2019-04-25T11:34:48.976Z,67.38
2019-04-25T11:35:49.157Z,66.89
2019-04-25T11:36:49.336Z,66.89
2019-04-25T11:37:50.531Z,66.65
2019-04-25T11:38:49.695Z,73.97
2019-04-25T11:39:50.413Z,68.12
2019-04-25T11:40:51.283Z,67.38
2019-04-25T11:46:34.919Z,70.07
2019-04-25T11:47:35.099Z,66.89
2019-04-25T11:48:35.277Z,65.67
2019-04-25T11:49:35.456Z,74.46
2019-04-25T11:50:37.008Z,68.12
2019-04-25T11:51:35.814Z,67.14
2019-04-25T11:52:35.993Z,67.63
2019-04-25T11:53:36.175Z,66.65
2019-04-25T11:54:36.354Z,68.12
2019-04-25T11:55:36.531Z,63.96
2019-04-25T11:56:36.709Z,67.63
2019-04-25T11:57:36.887Z,66.41
2019-04-25T11:58:37.065Z,69.58
2019-04-25T11:59:37.243Z,65.67
2019-04-25T12:00:37.423Z,66.16
